createdAt,value
2022-10-04T00:01:48.350Z,0.90
2022-10-04T00:04:30.780Z,1.40
2022-10-04T00:07:00.956Z,0.80
2022-10-04T00:09:32.860Z,0.97
2022-10-04T00:12:00.880Z,1.07
2022-10-04T00:14:33.400Z,1.20
2022-10-04T00:17:00.783Z,1.10
2022-10-04T00:19:39.719Z,1.30
2022-10-04T00:22:10.328Z,1.10
2022-10-04T00:24:38.056Z,1.10
2022-10-04T00:27:13.272Z,1.17
2022-10-04T00:29:42.198Z,1.00
2022-10-04T00:32:09.176Z,1.20
2022-10-04T00:34:36.183Z,1.03
2022-10-04T00:37:04.163Z,1.30
2022-10-04T00:39:34.017Z,1.27
2022-10-04T00:42:17.769Z,0.90
2022-10-04T00:44:51.881Z,1.20
2022-10-04T00:47:18.904Z,1.20
2022-10-04T00:49:47.148Z,1.30
2022-10-04T00:52:16.908Z,0.80
2022-10-04T00:54:47.523Z,1.00
2022-10-04T00:57:21.172Z,0.93
2022-10-04T00:59:49.736Z,0.93
2022-10-04T01:02:22.848Z,1.17
2022-10-04T01:05:00.402Z,0.83
2022-10-04T01:07:31.609Z,1.17
2022-10-04T01:10:01.097Z,0.87
2022-10-04T01:12:39.614Z,0.80
2022-10-04T01:15:09.487Z,0.90
2022-10-04T01:17:36.615Z,1.20
2022-10-04T01:20:04.075Z,1.10
2022-10-04T01:22:36.650Z,1.00
2022-10-04T01:25:04.156Z,1.10
2022-10-04T01:27:36.135Z,0.90
2022-10-04T01:30:04.922Z,0.90
2022-10-04T01:32:32.114Z,0.90
2022-10-04T01:34:59.406Z,1.10
2022-10-04T01:37:26.869Z,0.80
2022-10-04T01:39:54.192Z,0.77
2022-10-04T01:42:27.677Z,1.10
2022-10-04T01:44:55.391Z,0.90
2022-10-04T01:47:31.184Z,0.90
2022-10-04T01:49:59.977Z,0.90
2022-10-04T01:52:31.216Z,1.13
2022-10-04T01:55:10.400Z,1.10
2022-10-04T01:57:39.326Z,1.00
2022-10-04T02:00:07.855Z,0.93
2022-10-04T02:02:37.612Z,0.90
2022-10-04T02:05:07.554Z,0.90
2022-10-04T02:07:36.425Z,0.90
2022-10-04T02:10:06.205Z,0.90
2022-10-04T02:12:34.772Z,1.13
2022-10-04T02:15:03.215Z,1.10
2022-10-04T02:17:31.947Z,1.10
2022-10-04T02:19:59.775Z,0.97
2022-10-04T02:22:27.172Z,0.90
2022-10-04T02:24:55.534Z,1.23
2022-10-04T02:27:26.797Z,0.87
2022-10-04T02:29:54.349Z,0.80
2022-10-04T02:32:39.987Z,1.00
2022-10-04T02:35:07.622Z,0.97
2022-10-04T02:37:34.933Z,1.60
2022-10-04T02:40:17.298Z,1.20
2022-10-04T02:42:50.592Z,1.13
2022-10-04T02:45:32.664Z,0.90
2022-10-04T02:48:02.742Z,1.30
2022-10-04T02:50:40.357Z,1.20
2022-10-04T02:53:19.483Z,0.93
2022-10-04T02:55:47.551Z,0.97
2022-10-04T02:58:15.961Z,0.80
2022-10-04T03:00:50.698Z,1.10
2022-10-04T03:03:23.562Z,0.90
2022-10-04T03:06:14.075Z,1.00
2022-10-04T03:08:44.218Z,1.00
2022-10-04T03:11:12.337Z,1.00
2022-10-04T03:13:41.598Z,0.90
2022-10-04T03:16:08.995Z,1.10
2022-10-04T03:18:37.836Z,1.20
2022-10-04T03:21:08.942Z,1.20
2022-10-04T03:23:36.428Z,1.20
2022-10-04T03:26:06.503Z,1.10
2022-10-04T03:28:33.617Z,1.33
2022-10-04T03:31:01.198Z,1.17
2022-10-04T03:33:29.262Z,1.30
2022-10-04T03:35:57.321Z,1.10
2022-10-04T03:38:26.336Z,1.40
2022-10-04T03:40:56.187Z,1.40
2022-10-04T03:43:25.200Z,1.13
2022-10-04T03:45:52.709Z,1.10
2022-10-04T03:48:26.349Z,0.90
2022-10-04T03:50:54.321Z,0.90
2022-10-04T03:53:35.314Z,1.20
2022-10-04T03:56:04.504Z,1.50
2022-10-04T03:58:32.333Z,1.40
2022-10-04T04:01:00.407Z,1.13
2022-10-04T04:03:29.881Z,1.00
2022-10-04T04:05:59.789Z,1.03
2022-10-04T04:08:30.721Z,1.30
2022-10-04T04:10:59.472Z,1.00
2022-10-04T04:13:41.715Z,1.37
2022-10-04T04:16:10.204Z,1.30
2022-10-04T04:18:38.887Z,1.10
2022-10-04T04:21:08.015Z,1.20
2022-10-04T04:23:39.832Z,1.40
2022-10-04T04:26:13.018Z,1.23
2022-10-04T04:28:42.300Z,1.87
2022-10-04T04:31:14.049Z,1.57
2022-10-04T04:33:47.219Z,1.43
2022-10-04T04:36:15.599Z,1.30
2022-10-04T04:39:01.354Z,1.50
2022-10-04T04:41:30.306Z,1.47
2022-10-04T04:43:57.831Z,1.67
2022-10-04T04:46:27.981Z,1.20
2022-10-04T04:49:03.853Z,1.40
2022-10-04T04:51:32.667Z,1.57
2022-10-04T04:54:00.471Z,1.30
2022-10-04T04:56:29.373Z,1.60
2022-10-04T04:58:59.505Z,1.70
2022-10-04T05:01:29.664Z,1.70
2022-10-04T05:04:04.161Z,1.20
2022-10-04T05:06:32.572Z,1.57
2022-10-04T05:08:59.677Z,1.23
2022-10-04T05:11:29.993Z,1.43
2022-10-04T05:14:00.631Z,2.23
2022-10-04T05:16:36.249Z,1.90
2022-10-04T05:19:06.691Z,1.23
2022-10-04T05:21:38.546Z,1.60
2022-10-04T05:24:27.991Z,1.60
2022-10-04T05:26:57.414Z,1.60
2022-10-04T05:29:26.879Z,1.20
2022-10-04T05:32:01.308Z,1.27
2022-10-04T05:34:31.154Z,1.40
2022-10-04T05:37:06.364Z,1.67
2022-10-04T05:39:39.455Z,1.37
2022-10-04T05:42:13.482Z,1.20
2022-10-04T05:44:49.731Z,1.70
2022-10-04T05:47:22.736Z,1.30
2022-10-04T05:49:50.738Z,1.40
2022-10-04T05:52:27.879Z,1.27
2022-10-04T05:55:13.176Z,1.50
2022-10-04T05:57:47.068Z,1.40
2022-10-04T06:00:18.718Z,1.60
2022-10-04T06:03:04.525Z,1.30
2022-10-04T06:05:31.540Z,1.43
2022-10-04T06:07:58.570Z,1.50
2022-10-04T06:10:58.261Z,1.70
2022-10-04T06:13:30.008Z,1.80
2022-10-04T06:16:00.467Z,1.90
2022-10-04T06:19:05.107Z,1.93
2022-10-04T06:21:35.297Z,1.80
2022-10-04T06:24:17.654Z,2.00
2022-10-04T06:26:48.185Z,1.83
2022-10-04T06:29:17.808Z,1.50
2022-10-04T06:31:49.907Z,1.90
2022-10-04T06:34:19.984Z,1.90
2022-10-04T06:37:05.854Z,1.60
2022-10-04T06:39:42.411Z,1.87
2022-10-04T06:42:21.326Z,1.70
2022-10-04T06:44:48.334Z,1.63
2022-10-04T06:47:29.450Z,1.60
2022-10-04T06:50:15.612Z,1.90
2022-10-04T06:52:45.378Z,1.93
2022-10-04T06:55:31.035Z,1.90
2022-10-04T06:58:17.369Z,1.63
2022-10-04T07:00:50.500Z,1.90
2022-10-04T07:03:20.590Z,1.60
2022-10-04T07:05:52.079Z,1.80
2022-10-04T07:08:31.193Z,1.50
2022-10-04T07:11:22.070Z,1.50
2022-10-04T07:13:53.806Z,1.40
2022-10-04T07:16:37.609Z,1.70
2022-10-04T07:19:12.342Z,1.70
2022-10-04T07:21:46.939Z,1.60
2022-10-04T07:24:19.640Z,1.70
2022-10-04T07:26:48.426Z,1.30
2022-10-04T07:29:21.145Z,1.70
2022-10-04T07:32:08.547Z,1.27
2022-10-04T07:34:38.465Z,1.47
2022-10-04T07:37:10.560Z,1.30
2022-10-04T07:39:44.544Z,1.80
2022-10-04T07:42:12.458Z,1.50
2022-10-04T07:44:41.525Z,1.50
2022-10-04T07:47:21.915Z,1.53
2022-10-04T07:49:53.872Z,1.23
2022-10-04T07:52:23.930Z,1.50
2022-10-04T07:55:00.984Z,1.57
2022-10-04T07:57:31.748Z,1.30
2022-10-04T08:00:03.346Z,1.40
2022-10-04T08:02:56.072Z,1.40
2022-10-04T08:05:37.867Z,1.43
2022-10-04T08:08:23.496Z,1.20
2022-10-04T08:10:57.559Z,1.20
2022-10-04T08:13:37.091Z,1.53
2022-10-04T08:16:05.286Z,1.53
2022-10-04T08:18:48.050Z,1.43
2022-10-04T08:21:17.028Z,1.50
2022-10-04T08:23:44.649Z,1.20
2022-10-04T08:26:11.728Z,1.53
2022-10-04T08:29:12.276Z,1.57
2022-10-04T08:31:39.370Z,1.30
2022-10-04T08:34:21.663Z,1.60
2022-10-04T08:37:02.218Z,1.50
2022-10-04T08:39:35.540Z,1.40
2022-10-04T08:42:11.719Z,1.40
2022-10-04T08:44:57.410Z,1.30
2022-10-04T08:47:59.143Z,1.10
2022-10-04T08:50:44.723Z,0.90
2022-10-04T08:53:30.563Z,1.33
2022-10-04T08:56:03.329Z,1.33
2022-10-04T08:58:49.271Z,1.40
2022-10-04T09:01:35.587Z,1.53
2022-10-04T09:04:21.948Z,1.50
2022-10-04T09:07:04.227Z,1.40
2022-10-04T09:09:40.733Z,1.90
2022-10-04T09:12:26.801Z,1.53
2022-10-04T09:15:04.358Z,1.50
2022-10-04T09:17:46.918Z,1.47
2022-10-04T09:20:37.654Z,1.40
2022-10-04T09:23:37.228Z,1.90
2022-10-04T09:26:06.324Z,1.57
2022-10-04T09:28:39.297Z,1.57
2022-10-04T09:31:18.324Z,2.03
2022-10-04T09:33:48.102Z,1.77
2022-10-04T09:36:17.969Z,2.00
2022-10-04T09:39:11.555Z,1.90
2022-10-04T09:41:40.123Z,1.77
2022-10-04T09:44:20.061Z,2.17
2022-10-04T09:46:59.940Z,1.87
2022-10-04T09:49:34.821Z,2.20
2022-10-04T09:52:31.383Z,2.17
2022-10-04T09:55:05.065Z,1.90
2022-10-04T09:57:59.697Z,1.90
2022-10-04T10:00:50.014Z,1.57
2022-10-04T10:03:17.574Z,1.50
2022-10-04T10:05:44.682Z,1.50
2022-10-04T10:08:32.299Z,1.47
2022-10-04T10:11:26.515Z,1.40
2022-10-04T10:14:04.618Z,1.33
2022-10-04T10:16:51.098Z,1.40
2022-10-04T10:19:36.162Z,1.47
2022-10-04T10:22:21.976Z,1.47
2022-10-04T10:25:01.311Z,1.47
2022-10-04T10:27:34.226Z,1.57
2022-10-04T10:30:06.986Z,1.50
2022-10-04T10:32:45.605Z,1.37
2022-10-04T10:35:15.417Z,1.60
2022-10-04T10:38:01.082Z,1.40
2022-10-04T10:40:45.246Z,1.30
2022-10-04T10:43:30.938Z,1.10
2022-10-04T10:46:07.420Z,1.40
2022-10-04T10:48:53.101Z,1.00
2022-10-04T10:51:23.427Z,1.20
2022-10-04T10:54:14.157Z,1.13
2022-10-04T10:56:56.687Z,0.90
2022-10-04T10:59:42.520Z,0.90
2022-10-04T11:02:18.817Z,0.97
2022-10-04T11:04:54.691Z,1.13
2022-10-04T11:07:27.669Z,0.93
2022-10-04T11:10:14.201Z,1.00
2022-10-04T11:12:44.023Z,0.97
2022-10-04T11:15:29.846Z,1.10
2022-10-04T11:17:57.103Z,1.13
2022-10-04T11:20:42.257Z,0.80
2022-10-04T11:23:28.042Z,1.03
2022-10-04T11:26:04.200Z,1.30
2022-10-04T11:28:46.840Z,1.20
2022-10-04T11:31:33.996Z,1.17
2022-10-04T11:34:01.032Z,1.33
2022-10-04T11:36:39.771Z,0.93
2022-10-04T11:39:25.397Z,0.70
2022-10-04T11:41:56.044Z,1.10
2022-10-04T11:44:26.381Z,0.90
2022-10-04T11:46:56.262Z,0.87
2022-10-04T11:49:38.379Z,1.00
2022-10-04T11:52:26.764Z,1.10
2022-10-04T11:55:03.004Z,1.00
2022-10-04T11:57:43.131Z,0.90
2022-10-04T12:00:18.024Z,0.90
2022-10-04T12:02:45.032Z,0.93
2022-10-04T12:05:23.380Z,0.80
2022-10-04T12:08:09.041Z,1.03
2022-10-04T12:10:37.433Z,1.00
2022-10-04T12:13:10.433Z,0.80
2022-10-04T12:15:38.465Z,0.70
2022-10-04T12:18:28.448Z,0.60
2022-10-04T12:20:56.806Z,0.70
2022-10-04T12:23:32.883Z,0.80
2022-10-04T12:25:59.909Z,1.00
2022-10-04T12:28:39.228Z,0.73
2022-10-04T12:31:06.321Z,0.70
2022-10-04T12:33:43.380Z,1.23
2022-10-04T12:36:12.587Z,1.00
2022-10-04T12:38:49.590Z,0.93
2022-10-04T12:41:16.652Z,0.90
2022-10-04T12:43:46.510Z,1.00
2022-10-04T12:46:23.279Z,0.80
2022-10-04T12:49:04.071Z,0.67
2022-10-04T12:51:47.739Z,1.00
2022-10-04T12:54:29.814Z,0.90
2022-10-04T12:57:35.354Z,1.07
2022-10-04T13:00:17.433Z,1.03
2022-10-04T13:03:02.911Z,1.00
2022-10-04T13:05:48.483Z,1.20
2022-10-04T13:08:34.467Z,0.77
2022-10-04T13:11:13.648Z,0.90
2022-10-04T13:13:49.641Z,1.17
2022-10-04T13:19:31.574Z,1.00
2022-10-04T13:22:43.958Z,0.90
2022-10-04T13:25:12.539Z,1.00
2022-10-04T13:27:50.649Z,1.00
2022-10-04T13:30:27.686Z,0.80
2022-10-04T13:33:05.376Z,0.70
2022-10-04T13:35:38.048Z,1.10
2022-10-04T13:38:07.986Z,1.07
2022-10-04T13:40:37.789Z,1.23
2022-10-04T13:43:40.106Z,1.10
2022-10-04T13:46:25.608Z,0.77
2022-10-04T13:49:01.256Z,1.00
2022-10-04T13:51:48.858Z,0.93
2022-10-04T13:54:43.597Z,0.70
2022-10-04T13:57:20.112Z,0.90
2022-10-04T13:59:47.127Z,0.70
2022-10-04T14:02:21.172Z,1.20
2022-10-04T14:05:10.329Z,0.87
2022-10-04T14:08:00.918Z,1.07
2022-10-04T14:10:44.112Z,0.97
2022-10-04T14:13:11.177Z,0.87
2022-10-04T14:15:56.818Z,1.00
2022-10-04T14:18:44.924Z,0.80
2022-10-04T14:21:19.124Z,1.00
2022-10-04T14:23:48.239Z,0.90
2022-10-04T14:26:15.233Z,0.90
2022-10-04T14:28:58.810Z,1.10
2022-10-04T14:31:37.216Z,0.90
2022-10-04T14:34:16.529Z,0.70
2022-10-04T14:36:50.692Z,0.77
2022-10-04T14:39:23.955Z,0.77
2022-10-04T14:41:54.010Z,0.97
2022-10-04T14:44:23.597Z,0.80
2022-10-04T14:47:08.396Z,0.70
2022-10-04T14:50:03.146Z,0.60
2022-10-04T14:52:36.308Z,0.60
2022-10-04T14:55:26.260Z,0.70
2022-10-04T14:57:56.324Z,0.50
2022-10-04T15:00:25.257Z,0.50
2022-10-04T15:03:16.931Z,0.50
2022-10-04T15:05:44.382Z,0.50
2022-10-04T15:08:26.482Z,0.60
2022-10-04T15:10:55.468Z,0.40
2022-10-04T15:13:34.978Z,0.60
2022-10-04T15:16:14.564Z,0.60
2022-10-04T15:18:52.236Z,0.80
2022-10-04T15:21:39.021Z,0.80
2022-10-04T15:24:24.239Z,0.60
2022-10-04T15:26:57.565Z,0.40
2022-10-04T15:29:28.614Z,0.60
2022-10-04T15:31:55.609Z,0.60
2022-10-04T15:34:22.626Z,0.50
2022-10-04T15:37:00.172Z,0.73
2022-10-04T15:39:35.997Z,0.40
2022-10-04T15:42:13.295Z,0.67
2022-10-04T15:44:59.326Z,0.50
2022-10-04T15:47:32.466Z,0.50
2022-10-04T15:50:05.813Z,0.90
2022-10-04T15:52:35.634Z,0.67
2022-10-04T15:55:02.690Z,0.83
2022-10-04T15:57:41.941Z,0.90
2022-10-04T16:00:20.998Z,0.60
2022-10-04T16:02:48.531Z,0.60
2022-10-04T16:05:22.260Z,0.70
2022-10-04T16:08:14.520Z,0.60
2022-10-04T16:10:53.693Z,0.80
2022-10-04T16:13:56.790Z,0.73
2022-10-04T16:16:26.779Z,0.73
2022-10-04T16:18:56.808Z,0.57
2022-10-04T16:21:29.811Z,0.50
2022-10-04T16:24:15.368Z,0.73
2022-10-04T16:26:43.437Z,0.93
2022-10-04T16:29:29.887Z,0.77
2022-10-04T16:32:14.861Z,1.50
2022-10-04T16:34:45.445Z,1.80
2022-10-04T16:37:24.475Z,1.20
2022-10-04T16:40:05.894Z,1.00
2022-10-04T16:42:33.004Z,1.00
2022-10-04T16:45:02.634Z,1.30
2022-10-04T16:47:39.515Z,1.20
2022-10-04T16:50:10.455Z,1.17
2022-10-04T16:52:57.406Z,1.20
2022-10-04T16:55:33.367Z,2.23
2022-10-04T16:58:19.503Z,2.00
2022-10-04T17:00:47.818Z,1.40
2022-10-04T17:03:21.946Z,1.70
2022-10-04T17:05:48.958Z,2.83
2022-10-04T17:08:15.955Z,3.37
2022-10-04T17:10:45.995Z,2.83
2022-10-04T17:13:15.799Z,1.80
2022-10-04T17:15:50.414Z,1.40
2022-10-04T17:18:30.833Z,1.63
2022-10-04T17:20:59.975Z,1.70
2022-10-04T17:23:42.343Z,1.80
2022-10-04T17:26:28.076Z,1.80
2022-10-04T17:29:00.669Z,2.30
2022-10-04T17:31:33.718Z,1.80
2022-10-04T17:34:27.390Z,1.57
2022-10-04T17:37:04.569Z,1.80
2022-10-04T17:39:39.691Z,1.80
2022-10-04T17:42:15.747Z,2.10
2022-10-04T17:45:07.817Z,1.90
2022-10-04T17:47:55.983Z,1.80
2022-10-04T17:50:46.660Z,1.93
2022-10-04T17:53:37.348Z,2.10
2022-10-04T17:56:06.178Z,2.00
2022-10-04T17:58:42.360Z,2.20
2022-10-04T18:01:16.039Z,2.23
2022-10-04T18:03:54.693Z,1.90
2022-10-04T18:06:30.614Z,1.80
2022-10-04T18:08:57.627Z,2.10
2022-10-04T18:11:24.627Z,2.03
2022-10-04T18:14:00.755Z,2.33
2022-10-04T18:16:30.565Z,2.30
2022-10-04T18:18:58.241Z,2.50
2022-10-04T18:21:27.781Z,2.53
2022-10-04T18:23:56.633Z,2.93
2022-10-04T18:26:24.950Z,2.70
2022-10-04T18:28:54.186Z,2.80
2022-10-04T18:31:24.336Z,2.77
2022-10-04T18:33:53.889Z,2.83
2022-10-04T18:36:27.462Z,2.53
2022-10-04T18:39:20.964Z,2.50
2022-10-04T18:41:57.266Z,2.40
2022-10-04T18:44:29.503Z,2.47
2022-10-04T18:46:57.723Z,2.60
2022-10-04T18:49:25.722Z,2.50
2022-10-04T18:52:11.188Z,2.80
2022-10-04T18:54:45.718Z,2.57
2022-10-04T18:57:15.833Z,2.43
2022-10-04T19:00:08.369Z,2.50
2022-10-04T19:02:38.171Z,2.60
2022-10-04T19:05:05.294Z,2.43
2022-10-04T19:07:32.352Z,2.37
2022-10-04T19:10:07.067Z,2.63
2022-10-04T19:12:37.135Z,3.00
2022-10-04T19:15:10.225Z,3.03
2022-10-04T19:17:45.741Z,2.70
2022-10-04T19:20:20.450Z,2.87
2022-10-04T19:22:53.614Z,2.83
2022-10-04T19:25:24.740Z,3.00
2022-10-04T19:28:15.174Z,2.77
2022-10-04T19:30:42.250Z,2.70
2022-10-04T19:33:15.050Z,2.77
2022-10-04T19:35:57.162Z,2.77
2022-10-04T19:38:42.702Z,2.57
2022-10-04T19:41:12.834Z,2.80
2022-10-04T19:43:45.100Z,2.90
2022-10-04T19:46:35.428Z,2.50
2022-10-04T19:49:02.638Z,2.70
2022-10-04T19:51:33.992Z,2.70
2022-10-04T19:54:04.447Z,2.67
2022-10-04T19:56:33.877Z,2.87
2022-10-04T19:59:08.982Z,2.70
2022-10-04T20:01:36.488Z,2.50
2022-10-04T20:04:26.649Z,2.90
2022-10-04T20:06:58.542Z,2.83
2022-10-04T20:09:33.594Z,2.50
2022-10-04T20:12:00.778Z,2.97
2022-10-04T20:14:27.780Z,2.93
2022-10-04T20:16:54.911Z,2.70
2022-10-04T20:19:37.049Z,3.27
2022-10-04T20:22:13.201Z,3.17
2022-10-04T20:24:40.247Z,3.07
2022-10-04T20:27:09.044Z,3.20
2022-10-04T20:29:39.117Z,2.77
2022-10-04T20:32:10.335Z,2.93
2022-10-04T20:34:40.388Z,3.10
2022-10-04T20:37:08.432Z,3.07
2022-10-04T20:39:41.538Z,3.20
2022-10-04T20:42:19.546Z,3.10
2022-10-04T20:44:55.191Z,3.00
2022-10-04T20:47:28.943Z,3.00
2022-10-04T20:50:01.615Z,3.10
2022-10-04T20:52:30.646Z,2.77
2022-10-04T20:54:58.982Z,2.60
2022-10-04T20:57:26.417Z,2.93
2022-10-04T20:59:55.451Z,2.77
2022-10-04T21:02:24.322Z,2.77
2022-10-04T21:04:57.334Z,2.37
2022-10-04T21:07:25.275Z,2.80
2022-10-04T21:09:55.390Z,2.60
2022-10-04T21:12:28.299Z,2.50
2022-10-04T21:15:21.959Z,2.67
2022-10-04T21:18:02.693Z,2.60
2022-10-04T21:20:48.501Z,2.60
2022-10-04T21:23:18.658Z,2.30
2022-10-04T21:25:45.829Z,2.40
2022-10-04T21:28:33.291Z,2.30
2022-10-04T21:31:01.058Z,3.13
2022-10-04T21:33:28.077Z,3.03
2022-10-04T21:35:55.137Z,3.03
2022-10-04T21:38:22.173Z,3.00
2022-10-04T21:40:49.201Z,2.67
2022-10-04T21:43:16.215Z,2.60
2022-10-04T21:45:43.443Z,2.90
2022-10-04T21:48:10.553Z,2.90
2022-10-04T21:50:37.589Z,2.63
2022-10-04T21:53:04.713Z,2.60
2022-10-04T21:55:31.821Z,2.80
2022-10-04T21:57:58.961Z,2.73
2022-10-04T22:00:26.061Z,2.23
2022-10-04T22:02:53.096Z,2.80
2022-10-04T22:05:20.137Z,2.87
2022-10-04T22:07:47.162Z,2.77
2022-10-04T22:10:14.231Z,2.60
2022-10-04T22:12:41.328Z,2.90
2022-10-04T22:15:08.640Z,2.83
2022-10-04T22:17:35.700Z,2.70
2022-10-04T22:20:02.778Z,2.67
2022-10-04T22:22:31.651Z,2.57
2022-10-04T22:24:59.811Z,2.50
2022-10-04T22:27:27.417Z,2.60
2022-10-04T22:29:56.030Z,2.50
2022-10-04T22:32:24.539Z,2.70
2022-10-04T22:34:52.084Z,2.40
2022-10-04T22:37:23.947Z,2.33
2022-10-04T22:39:54.164Z,2.40
2022-10-04T22:42:21.490Z,2.60
2022-10-04T22:44:48.593Z,2.37
2022-10-04T22:47:16.370Z,2.40
2022-10-04T22:49:44.731Z,2.47
2022-10-04T22:52:13.923Z,2.50
2022-10-04T22:54:43.375Z,2.47
2022-10-04T22:57:11.354Z,2.40
2022-10-04T22:59:39.502Z,2.17
2022-10-04T23:02:08.006Z,2.47
2022-10-04T23:04:35.104Z,2.43
2022-10-04T23:07:02.225Z,2.57
2022-10-04T23:09:29.241Z,2.70
2022-10-04T23:11:56.286Z,2.53
2022-10-04T23:14:23.324Z,2.23
2022-10-04T23:16:50.537Z,2.40
2022-10-04T23:19:21.384Z,2.57
2022-10-04T23:21:49.300Z,2.60
2022-10-04T23:24:16.502Z,2.50
2022-10-04T23:26:45.270Z,2.47
2022-10-04T23:29:18.750Z,2.47
2022-10-04T23:31:47.185Z,2.90
2022-10-04T23:34:17.444Z,2.43
2022-10-04T23:36:44.963Z,2.37
2022-10-04T23:39:14.386Z,2.60
2022-10-04T23:41:42.097Z,2.60
2022-10-04T23:44:11.811Z,2.50
2022-10-04T23:46:38.883Z,2.57
2022-10-04T23:49:05.930Z,2.30
2022-10-04T23:51:32.976Z,2.30
2022-10-04T23:54:00.063Z,2.17
2022-10-04T23:56:29.480Z,2.33
2022-10-04T23:58:58.719Z,2.20
